createdAt,value
2018-03-26T00:00:24.087Z,8.20
2018-03-26T00:02:51.553Z,8.01
2018-03-26T00:05:19.016Z,8.11
2018-03-26T00:07:46.793Z,8.02
2018-03-26T00:10:14.256Z,8.09
2018-03-26T00:12:41.713Z,8.26
2018-03-26T00:15:09.458Z,7.99
2018-03-26T00:17:36.969Z,8.02
2018-03-26T00:20:04.433Z,7.80
2018-03-26T00:22:32.156Z,8.15
2018-03-26T00:24:59.608Z,7.68
2018-03-26T00:27:27.077Z,7.71
2018-03-26T00:29:54.780Z,7.79
2018-03-26T00:32:23.800Z,7.71
2018-03-26T00:34:51.275Z,7.96
2018-03-26T00:37:19.056Z,7.99
2018-03-26T00:39:46.521Z,7.95
2018-03-26T00:42:13.989Z,7.84
2018-03-26T00:44:41.750Z,7.84
2018-03-26T00:47:09.210Z,8.17
2018-03-26T00:49:36.672Z,8.18
2018-03-26T00:52:04.433Z,8.04
2018-03-26T00:54:31.895Z,8.50
2018-03-26T00:56:59.387Z,8.31
2018-03-26T00:59:27.220Z,8.48
2018-03-26T01:01:54.675Z,8.18
2018-03-26T01:04:22.151Z,8.29
2018-03-26T01:06:49.818Z,8.44
2018-03-26T01:09:17.268Z,8.60
2018-03-26T01:11:44.722Z,8.56
2018-03-26T01:14:12.373Z,8.61
2018-03-26T01:16:39.828Z,8.49
2018-03-26T01:19:07.290Z,8.82
2018-03-26T01:21:35.178Z,8.43
2018-03-26T01:24:02.646Z,8.16
2018-03-26T01:26:30.106Z,8.29
2018-03-26T01:28:57.700Z,8.58
2018-03-26T01:31:25.773Z,7.95
2018-03-26T01:33:54.091Z,8.12
2018-03-26T01:36:22.048Z,8.51
2018-03-26T01:38:49.509Z,8.11
2018-03-26T01:41:16.961Z,8.63
2018-03-26T01:43:44.778Z,8.32
2018-03-26T01:46:12.236Z,8.25
2018-03-26T01:48:39.689Z,8.40
2018-03-26T01:51:07.800Z,8.18
2018-03-26T01:53:35.264Z,8.35
2018-03-26T01:56:02.718Z,8.57
2018-03-26T01:58:30.661Z,8.38
2018-03-26T02:00:58.126Z,8.34
2018-03-26T02:03:25.589Z,7.72
2018-03-26T02:05:53.298Z,8.63
2018-03-26T02:08:20.760Z,8.26
2018-03-26T02:10:48.216Z,8.35
2018-03-26T02:13:16.457Z,7.97
2018-03-26T02:15:43.935Z,8.10
2018-03-26T02:18:11.394Z,8.53
2018-03-26T02:20:39.143Z,8.03
2018-03-26T02:23:06.614Z,8.56
2018-03-26T02:25:34.073Z,8.40
2018-03-26T02:28:01.838Z,8.65
2018-03-26T02:30:29.309Z,8.60
2018-03-26T02:32:56.793Z,8.29
2018-03-26T02:35:25.131Z,8.60
2018-03-26T02:37:52.596Z,8.43
2018-03-26T02:40:20.055Z,8.68
2018-03-26T02:42:47.821Z,8.05
2018-03-26T02:45:15.287Z,7.78
2018-03-26T02:47:42.750Z,8.27
2018-03-26T02:50:11.106Z,8.00
2018-03-26T02:52:38.571Z,7.55
2018-03-26T02:55:06.043Z,7.72
2018-03-26T02:57:34.431Z,8.33
2018-03-26T03:00:01.885Z,8.52
2018-03-26T03:02:29.359Z,8.39
2018-03-26T03:04:57.155Z,8.37
2018-03-26T03:07:24.615Z,8.58
2018-03-26T03:09:52.074Z,7.65
2018-03-26T03:12:20.103Z,8.43
2018-03-26T03:14:47.580Z,8.29
2018-03-26T03:17:15.042Z,8.47
2018-03-26T03:19:42.753Z,7.88
2018-03-26T03:22:10.209Z,8.05
2018-03-26T03:24:37.666Z,8.29
2018-03-26T03:27:05.492Z,7.98
2018-03-26T03:29:32.944Z,8.37
2018-03-26T03:32:00.409Z,8.12
2018-03-26T03:34:28.072Z,7.82
2018-03-26T03:36:56.005Z,8.46
2018-03-26T03:39:23.474Z,8.48
2018-03-26T03:41:51.468Z,8.59
2018-03-26T03:44:18.928Z,8.17
2018-03-26T03:46:46.386Z,8.46
2018-03-26T03:49:14.054Z,8.28
2018-03-26T03:51:41.525Z,7.92
2018-03-26T03:54:08.999Z,7.96
2018-03-26T03:56:36.841Z,8.04
2018-03-26T03:59:04.301Z,8.25
2018-03-26T04:01:31.757Z,8.34
2018-03-26T04:03:59.505Z,8.02
2018-03-26T04:06:26.965Z,7.90
2018-03-26T04:08:54.421Z,7.58
2018-03-26T04:11:22.218Z,7.42
2018-03-26T04:13:49.674Z,7.95
2018-03-26T04:16:17.151Z,8.26
2018-03-26T04:18:45.158Z,7.85
2018-03-26T04:21:12.622Z,7.74
2018-03-26T04:23:40.081Z,7.60
2018-03-26T04:26:07.905Z,7.79
2018-03-26T04:28:35.381Z,7.71
2018-03-26T04:31:02.837Z,7.78
2018-03-26T04:33:30.585Z,7.75
2018-03-26T04:35:58.045Z,7.65
2018-03-26T04:38:25.674Z,7.23
2018-03-26T04:40:53.583Z,7.59
2018-03-26T04:43:21.037Z,7.81
2018-03-26T04:45:48.499Z,7.92
2018-03-26T04:48:16.270Z,7.95
2018-03-26T04:50:43.733Z,8.06
2018-03-26T04:53:11.204Z,7.87
2018-03-26T04:55:38.953Z,8.17
2018-03-26T04:58:06.429Z,8.16
2018-03-26T05:00:33.897Z,8.32
2018-03-26T05:03:01.641Z,9.35
2018-03-26T05:05:29.096Z,9.36
2018-03-26T05:07:56.603Z,9.86
2018-03-26T05:10:24.635Z,10.07
2018-03-26T05:12:52.106Z,10.19
2018-03-26T05:15:19.591Z,10.08
2018-03-26T05:17:47.318Z,9.82
2018-03-26T05:20:14.788Z,9.96
2018-03-26T05:22:42.271Z,9.97
2018-03-26T05:25:10.319Z,9.90
2018-03-26T05:27:37.788Z,10.15
2018-03-26T05:30:05.232Z,9.97
2018-03-26T05:32:32.996Z,10.08
2018-03-26T05:35:00.466Z,10.27
2018-03-26T05:37:27.921Z,10.07
2018-03-26T05:39:55.998Z,10.45
2018-03-26T05:42:23.460Z,10.19
2018-03-26T05:44:50.921Z,10.56
2018-03-26T05:47:18.731Z,10.12
2018-03-26T05:49:46.196Z,10.65
2018-03-26T05:52:13.711Z,10.56
2018-03-26T05:54:41.376Z,10.19
2018-03-26T05:57:08.842Z,10.43
2018-03-26T05:59:36.313Z,10.44
2018-03-26T06:02:04.369Z,10.41
2018-03-26T06:04:31.884Z,10.40
2018-03-26T06:06:59.351Z,10.60
2018-03-26T06:09:27.066Z,10.17
2018-03-26T06:11:54.568Z,10.74
2018-03-26T06:14:22.008Z,10.68
2018-03-26T06:17:01.725Z,10.60
2018-03-26T06:19:29.187Z,10.70
2018-03-26T06:21:56.650Z,11.00
2018-03-26T06:24:24.314Z,10.83
2018-03-26T06:26:51.787Z,10.30
2018-03-26T06:29:19.252Z,11.11
2018-03-26T06:31:46.972Z,11.05
2018-03-26T06:34:15.477Z,11.02
2018-03-26T06:36:43.347Z,10.77
2018-03-26T06:39:16.807Z,10.83
2018-03-26T06:41:44.265Z,10.90
2018-03-26T06:44:11.812Z,10.90
2018-03-26T06:46:39.533Z,11.01
2018-03-26T06:49:06.998Z,10.82
2018-03-26T06:51:34.470Z,11.33
2018-03-26T06:54:02.914Z,10.99
2018-03-26T06:56:30.375Z,10.70
2018-03-26T06:58:57.833Z,10.01
2018-03-26T07:01:25.837Z,10.45
2018-03-26T07:03:53.291Z,10.60
2018-03-26T07:06:20.750Z,10.24
2018-03-26T07:08:48.825Z,11.21
2018-03-26T07:11:16.293Z,11.64
2018-03-26T07:13:43.749Z,9.71
2018-03-26T07:16:11.510Z,10.30
2018-03-26T07:18:38.977Z,11.26
2018-03-26T07:21:06.439Z,11.27
2018-03-26T07:23:34.189Z,10.95
2018-03-26T07:26:01.651Z,11.65
2018-03-26T07:28:29.153Z,11.84
2018-03-26T07:30:56.876Z,11.32
2018-03-26T07:33:24.335Z,11.08
2018-03-26T07:35:53.534Z,11.64
2018-03-26T07:38:21.421Z,11.28
2018-03-26T07:40:48.898Z,10.98
2018-03-26T07:43:16.357Z,12.00
2018-03-26T07:45:43.998Z,11.94
2018-03-26T07:48:11.461Z,12.28
2018-03-26T07:50:38.927Z,12.36
2018-03-26T07:53:07.101Z,11.80
2018-03-26T07:55:34.621Z,11.85
2018-03-26T07:58:02.088Z,11.90
2018-03-26T08:00:29.785Z,11.72
2018-03-26T08:02:57.250Z,12.43
2018-03-26T08:05:24.718Z,12.44
2018-03-26T08:07:52.512Z,12.62
2018-03-26T08:10:20.161Z,13.26
2018-03-26T08:12:47.626Z,12.34
2018-03-26T08:15:15.457Z,12.70
2018-03-26T08:17:42.914Z,12.44
2018-03-26T08:20:10.379Z,12.08
2018-03-26T08:22:38.150Z,12.27
2018-03-26T08:25:05.641Z,11.56
2018-03-26T08:27:33.112Z,11.30
2018-03-26T08:30:00.790Z,12.56
2018-03-26T08:32:28.265Z,12.70
2018-03-26T08:34:55.731Z,13.67
2018-03-26T08:37:24.137Z,12.51
2018-03-26T08:39:51.607Z,13.59
2018-03-26T08:42:19.146Z,11.70
2018-03-26T08:44:46.823Z,12.52
2018-03-26T08:47:15.042Z,14.00
2018-03-26T08:49:42.520Z,14.68
2018-03-26T08:52:10.444Z,13.88
2018-03-26T08:54:37.903Z,14.67
2018-03-26T08:57:05.369Z,13.88
2018-03-26T08:59:34.373Z,13.91
2018-03-26T09:02:12.319Z,14.04
2018-03-26T09:04:41.273Z,12.24
2018-03-26T09:07:10.316Z,13.77
2018-03-26T09:09:37.795Z,13.50
2018-03-26T09:12:05.535Z,13.15
2018-03-26T09:14:32.997Z,13.85
2018-03-26T09:17:00.452Z,13.47
2018-03-26T09:19:28.099Z,13.47
2018-03-26T09:21:55.905Z,13.08
2018-03-26T09:24:23.374Z,13.01
2018-03-26T09:26:51.160Z,11.44
2018-03-26T09:29:18.750Z,12.75
2018-03-26T09:31:46.213Z,13.48
2018-03-26T09:34:14.144Z,13.65
2018-03-26T09:36:41.607Z,14.69
2018-03-26T09:39:09.460Z,13.65
2018-03-26T09:41:37.191Z,12.31
2018-03-26T09:44:04.656Z,11.91
2018-03-26T09:46:32.119Z,11.93
2018-03-26T09:48:59.833Z,11.87
2018-03-26T09:51:27.308Z,12.76
2018-03-26T09:53:54.772Z,14.18
2018-03-26T09:56:22.515Z,14.65
2018-03-26T10:01:54.001Z,12.14
2018-03-26T10:04:21.459Z,14.32
2018-03-26T10:06:48.939Z,13.23
2018-03-26T10:09:17.299Z,12.54
2018-03-26T10:11:44.769Z,13.84
2018-03-26T10:14:12.281Z,14.35
2018-03-26T10:16:39.836Z,13.31
2018-03-26T10:19:07.306Z,13.18
2018-03-26T10:21:34.780Z,13.54
2018-03-26T10:24:02.665Z,15.03
2018-03-26T10:26:30.128Z,14.00
2018-03-26T10:28:57.597Z,14.53
2018-03-26T10:31:25.360Z,15.08
2018-03-26T10:33:52.828Z,14.80
2018-03-26T10:36:20.289Z,15.41
2018-03-26T10:38:48.054Z,14.32
2018-03-26T10:41:15.626Z,14.41
2018-03-26T10:43:43.092Z,14.26
2018-03-26T10:46:10.861Z,14.53
2018-03-26T10:48:38.324Z,15.45
2018-03-26T10:51:05.793Z,15.38
2018-03-26T10:53:33.419Z,13.74
2018-03-26T10:56:00.885Z,14.91
2018-03-26T10:58:28.360Z,15.40
2018-03-26T11:00:56.408Z,14.27
2018-03-26T11:03:23.921Z,15.10
2018-03-26T11:05:51.393Z,14.88
2018-03-26T11:08:19.109Z,14.41
2018-03-26T11:10:46.576Z,14.98
2018-03-26T11:13:14.029Z,15.60
2018-03-26T11:15:42.253Z,15.30
2018-03-26T11:18:09.713Z,15.39
2018-03-26T11:20:37.210Z,15.78
2018-03-26T11:23:05.097Z,15.60
2018-03-26T11:25:32.561Z,14.97
2018-03-26T11:28:00.057Z,15.41
2018-03-26T11:30:28.091Z,15.65
2018-03-26T11:32:55.545Z,14.99
2018-03-26T11:35:23.008Z,15.57
2018-03-26T11:37:50.778Z,15.25
2018-03-26T11:40:18.242Z,15.34
2018-03-26T11:42:46.081Z,15.29
2018-03-26T11:45:14.121Z,15.46
2018-03-26T11:47:41.590Z,15.57
2018-03-26T11:50:09.053Z,15.15
2018-03-26T11:52:36.766Z,15.00
2018-03-26T11:55:04.232Z,15.62
2018-03-26T11:57:31.703Z,15.37
2018-03-26T11:59:59.450Z,15.30
2018-03-26T12:02:26.909Z,15.50
2018-03-26T12:04:54.368Z,16.29
2018-03-26T12:07:22.103Z,15.75
2018-03-26T12:09:49.558Z,16.04
2018-03-26T12:12:17.031Z,15.75
2018-03-26T12:14:44.835Z,15.93
2018-03-26T12:17:12.297Z,15.80
2018-03-26T12:19:51.723Z,16.54
2018-03-26T12:22:19.187Z,15.63
2018-03-26T12:24:58.886Z,16.43
2018-03-26T12:27:26.346Z,16.38
2018-03-26T12:30:05.832Z,16.86
2018-03-26T12:32:33.298Z,16.87
2018-03-26T12:38:01.760Z,16.74
2018-03-26T12:40:41.085Z,16.36
2018-03-26T12:43:08.677Z,17.09
2018-03-26T12:45:48.038Z,16.62
2018-03-26T12:48:15.497Z,17.30
2018-03-26T12:50:54.936Z,17.15
2018-03-26T12:53:22.401Z,17.07
2018-03-26T12:55:49.869Z,16.88
2018-03-26T12:58:29.134Z,16.90
2018-03-26T13:01:08.436Z,17.39
2018-03-26T13:03:36.213Z,16.95
2018-03-26T13:06:03.681Z,16.82
2018-03-26T13:08:31.144Z,17.03
2018-03-26T13:10:58.950Z,17.89
2018-03-26T13:13:26.412Z,17.62
2018-03-26T13:15:53.884Z,17.68
2018-03-26T13:18:21.725Z,17.42
2018-03-26T13:20:49.197Z,16.11
2018-03-26T13:23:16.668Z,17.24
2018-03-26T13:25:44.677Z,17.02
2018-03-26T13:28:12.190Z,17.72
2018-03-26T13:30:39.624Z,16.71
2018-03-26T13:33:07.261Z,17.31
2018-03-26T13:35:34.728Z,17.23
2018-03-26T13:38:02.192Z,17.59
2018-03-26T13:40:29.957Z,16.59
2018-03-26T13:42:57.439Z,17.16
2018-03-26T13:45:25.869Z,17.13
2018-03-26T13:47:53.879Z,16.82
2018-03-26T13:50:21.346Z,17.12
2018-03-26T13:52:48.796Z,16.90
2018-03-26T13:55:16.536Z,15.98
2018-03-26T13:57:44.009Z,16.49
2018-03-26T14:00:11.480Z,15.99
2018-03-26T14:02:39.243Z,15.71
2018-03-26T14:05:06.737Z,15.65
2018-03-26T14:07:34.211Z,15.58
2018-03-26T14:10:13.806Z,15.88
2018-03-26T14:12:52.923Z,14.94
2018-03-26T14:15:33.088Z,15.45
2018-03-26T14:18:01.354Z,14.88
2018-03-26T14:20:28.812Z,15.83
2018-03-26T14:22:56.647Z,16.00
2018-03-26T14:25:24.111Z,15.45
2018-03-26T14:27:51.626Z,15.79
2018-03-26T14:30:19.708Z,16.22
2018-03-26T14:32:47.174Z,15.87
2018-03-26T14:35:47.413Z,16.11
2018-03-26T14:38:14.871Z,16.77
2018-03-26T14:40:42.351Z,16.66
2018-03-26T14:43:10.226Z,17.87
2018-03-26T14:45:38.354Z,18.42
2018-03-26T14:48:05.844Z,17.80
2018-03-26T14:50:33.717Z,16.70
2018-03-26T14:53:01.178Z,17.33
2018-03-26T14:55:28.651Z,17.59
2018-03-26T14:57:56.471Z,18.16
2018-03-26T15:00:23.932Z,17.82
2018-03-26T15:02:52.466Z,17.60
2018-03-26T15:05:20.382Z,18.37
2018-03-26T15:07:47.844Z,18.02
2018-03-26T15:10:15.312Z,16.21
2018-03-26T15:12:43.407Z,16.51
2018-03-26T15:15:10.874Z,16.20
2018-03-26T15:17:38.354Z,17.67
2018-03-26T15:20:06.233Z,16.79
2018-03-26T15:22:33.701Z,17.54
2018-03-26T15:25:01.177Z,17.63
2018-03-26T15:27:28.894Z,17.21
2018-03-26T15:29:56.339Z,17.33
2018-03-26T15:32:23.808Z,17.40
2018-03-26T15:34:51.748Z,17.51
2018-03-26T15:37:19.229Z,17.96
2018-03-26T15:39:46.691Z,18.16
2018-03-26T15:42:14.749Z,17.70
2018-03-26T15:44:42.213Z,17.56
2018-03-26T15:47:10.674Z,17.83
2018-03-26T15:49:38.362Z,17.70
2018-03-26T15:52:05.824Z,17.80
2018-03-26T15:54:33.289Z,16.92
2018-03-26T15:57:01.039Z,17.48
2018-03-26T15:59:28.509Z,17.75
2018-03-26T16:01:55.406Z,17.04
2018-03-26T16:04:23.161Z,16.48
2018-03-26T16:06:50.631Z,16.67
2018-03-26T16:09:18.189Z,16.69
2018-03-26T16:11:45.823Z,16.67
2018-03-26T16:14:13.347Z,16.51
2018-03-26T16:16:40.813Z,16.78
2018-03-26T16:19:09.118Z,16.42
2018-03-26T16:21:36.585Z,16.01
2018-03-26T16:24:04.082Z,16.29
2018-03-26T16:26:32.101Z,15.61
2018-03-26T16:28:59.565Z,15.73
2018-03-26T16:31:27.025Z,14.74
2018-03-26T16:33:54.779Z,15.48
2018-03-26T16:36:22.254Z,15.18
2018-03-26T16:38:49.723Z,14.95
2018-03-26T16:41:29.138Z,15.13
2018-03-26T16:43:56.598Z,15.41
2018-03-26T16:46:24.069Z,15.07
2018-03-26T16:48:52.137Z,14.50
2018-03-26T16:51:19.604Z,13.76
2018-03-26T16:53:47.071Z,14.00
2018-03-26T16:56:14.828Z,14.02
2018-03-26T16:58:42.273Z,13.99
2018-03-26T17:01:09.794Z,14.01
2018-03-26T17:03:37.824Z,13.58
2018-03-26T17:06:06.340Z,14.30
2018-03-26T17:08:33.805Z,14.14
2018-03-26T17:11:01.446Z,14.13
2018-03-26T17:13:28.910Z,13.86
2018-03-26T17:15:56.372Z,13.48
2018-03-26T17:18:24.422Z,13.33
2018-03-26T17:20:51.881Z,13.21
2018-03-26T17:23:19.351Z,14.00
2018-03-26T17:25:47.727Z,13.52
2018-03-26T17:28:15.235Z,13.95
2018-03-26T17:30:42.700Z,13.68
2018-03-26T17:33:10.714Z,12.71
2018-03-26T17:35:38.197Z,12.51
2018-03-26T17:38:05.666Z,12.98
2018-03-26T17:40:33.405Z,13.29
2018-03-26T17:43:00.869Z,13.19
2018-03-26T17:45:28.329Z,13.04
2018-03-26T17:47:56.094Z,12.29
2018-03-26T17:50:24.006Z,12.50
2018-03-26T17:52:51.476Z,12.61
2018-03-26T17:55:19.429Z,12.06
2018-03-26T17:57:46.901Z,12.14
2018-03-26T18:00:14.425Z,11.99
2018-03-26T18:02:42.089Z,12.14
2018-03-26T18:05:09.562Z,12.17
2018-03-26T18:07:37.027Z,12.20
2018-03-26T18:10:04.782Z,11.27
2018-03-26T18:12:32.258Z,11.58
2018-03-26T18:14:59.720Z,11.41
2018-03-26T18:17:27.470Z,11.18
2018-03-26T18:19:54.968Z,11.41
2018-03-26T18:22:22.427Z,11.90
2018-03-26T18:24:50.451Z,11.34
2018-03-26T18:27:17.919Z,11.49
2018-03-26T18:29:45.381Z,11.79
2018-03-26T18:32:13.139Z,11.66
2018-03-26T18:34:40.600Z,12.01
2018-03-26T18:37:08.067Z,11.42
2018-03-26T18:39:36.139Z,11.17
2018-03-26T18:42:03.609Z,10.99
2018-03-26T18:44:31.147Z,11.29
2018-03-26T18:46:58.974Z,11.30
2018-03-26T18:49:26.461Z,11.35
2018-03-26T18:51:55.358Z,11.57
2018-03-26T18:54:23.162Z,11.54
2018-03-26T18:56:50.626Z,11.59
2018-03-26T18:59:18.899Z,11.55
2018-03-26T19:01:46.674Z,11.23
2018-03-26T19:04:14.200Z,11.34
2018-03-26T19:06:41.864Z,11.87
2018-03-26T19:09:09.693Z,11.90
2018-03-26T19:11:37.188Z,11.87
2018-03-26T19:14:04.656Z,12.11
2018-03-26T19:16:32.446Z,11.76
2018-03-26T19:18:59.928Z,12.25
2018-03-26T19:21:27.582Z,12.41
2018-03-26T19:23:55.698Z,12.67
2018-03-26T19:26:23.365Z,12.43
2018-03-26T19:28:50.902Z,11.36
2018-03-26T19:31:18.987Z,11.89
2018-03-26T19:33:46.457Z,11.94
2018-03-26T19:36:13.933Z,11.84
2018-03-26T19:38:41.912Z,12.00
2018-03-26T19:41:09.750Z,11.84
2018-03-26T19:43:37.323Z,11.98
2018-03-26T19:46:05.311Z,12.29
2018-03-26T19:48:32.796Z,11.96
2018-03-26T19:51:00.294Z,12.01
2018-03-26T19:53:28.555Z,11.90
2018-03-26T19:55:56.030Z,12.00
2018-03-26T19:58:23.525Z,11.65
2018-03-26T20:00:51.532Z,11.78
2018-03-26T20:03:18.993Z,11.56
2018-03-26T20:09:16.760Z,11.35
2018-03-26T20:11:44.214Z,11.51
2018-03-26T20:14:11.687Z,11.32
2018-03-26T20:16:39.584Z,11.46
2018-03-26T20:19:07.063Z,11.42
2018-03-26T20:21:34.521Z,11.25
2018-03-26T20:24:02.880Z,11.24
2018-03-26T20:26:30.322Z,11.35
2018-03-26T20:28:57.786Z,11.84
2018-03-26T20:31:25.565Z,11.56
2018-03-26T20:33:53.039Z,11.62
2018-03-26T20:36:20.502Z,11.40
2018-03-26T20:38:48.255Z,11.92
2018-03-26T20:41:15.730Z,11.58
2018-03-26T20:43:43.200Z,11.50
2018-03-26T20:46:10.937Z,11.47
2018-03-26T20:48:38.421Z,11.77
2018-03-26T20:51:05.903Z,12.22
2018-03-26T20:53:35.161Z,12.54
2018-03-26T20:56:02.631Z,12.96
2018-03-26T20:58:30.098Z,12.83
2018-03-26T21:00:57.851Z,12.56
2018-03-26T21:03:25.305Z,12.54
2018-03-26T21:05:52.770Z,11.93
2018-03-26T21:08:20.532Z,11.48
2018-03-26T21:10:48.004Z,11.94
2018-03-26T21:13:15.473Z,11.99
2018-03-26T21:15:43.231Z,11.56
2018-03-26T21:18:10.705Z,11.47
2018-03-26T21:20:38.163Z,12.24
2018-03-26T21:23:05.918Z,12.63
2018-03-26T21:25:33.382Z,12.27
2018-03-26T21:28:00.849Z,12.49
2018-03-26T21:30:28.596Z,12.38
2018-03-26T21:32:56.060Z,12.56
2018-03-26T21:35:23.524Z,12.29
2018-03-26T21:37:51.130Z,12.05
2018-03-26T21:40:18.618Z,11.36
2018-03-26T21:42:46.091Z,11.35
2018-03-26T21:45:13.974Z,12.11
2018-03-26T21:47:41.438Z,11.64
2018-03-26T21:50:08.905Z,11.25
2018-03-26T21:52:37.193Z,11.25
2018-03-26T21:55:05.447Z,11.72
2018-03-26T21:57:32.917Z,11.78
2018-03-26T22:00:00.766Z,12.13
2018-03-26T22:02:28.242Z,11.91
2018-03-26T22:05:01.941Z,12.07
2018-03-26T22:07:29.404Z,12.03
2018-03-26T22:09:56.869Z,12.01
2018-03-26T22:15:06.327Z,11.30
2018-03-26T22:17:34.000Z,10.78
2018-03-26T22:20:01.460Z,10.99
2018-03-26T22:22:28.923Z,11.02
2018-03-26T22:24:56.673Z,10.87
2018-03-26T22:27:24.141Z,10.89
2018-03-26T22:29:51.594Z,10.78
2018-03-26T22:32:19.373Z,10.60
2018-03-26T22:34:46.844Z,11.16
2018-03-26T22:37:14.314Z,10.98
2018-03-26T22:39:41.966Z,10.80
2018-03-26T22:42:09.447Z,10.98
2018-03-26T22:44:36.913Z,10.53
2018-03-26T22:47:04.749Z,11.01
2018-03-26T22:49:32.217Z,10.95
2018-03-26T22:51:59.678Z,10.94
2018-03-26T22:54:27.423Z,11.02
2018-03-26T22:56:55.282Z,11.06
2018-03-26T22:59:22.745Z,11.36
2018-03-26T23:01:50.731Z,11.22
2018-03-26T23:04:18.190Z,11.57
2018-03-26T23:06:45.645Z,11.38
2018-03-26T23:09:13.420Z,11.76
2018-03-26T23:11:40.889Z,11.54
2018-03-26T23:14:08.400Z,11.34
2018-03-26T23:16:36.111Z,11.13
2018-03-26T23:19:03.572Z,11.11
2018-03-26T23:21:31.033Z,11.27
2018-03-26T23:23:58.799Z,11.11
2018-03-26T23:26:26.272Z,10.98
2018-03-26T23:28:54.304Z,11.19
2018-03-26T23:31:22.032Z,11.76
2018-03-26T23:33:49.512Z,11.35
2018-03-26T23:36:16.985Z,10.99
2018-03-26T23:38:44.786Z,10.85
2018-03-26T23:41:12.258Z,10.65
2018-03-26T23:43:39.732Z,10.63
2018-03-26T23:46:07.472Z,10.62
2018-03-26T23:48:34.934Z,10.86
2018-03-26T23:51:02.401Z,11.57
2018-03-26T23:53:30.162Z,11.59
2018-03-26T23:55:57.647Z,12.10
2018-03-26T23:58:25.440Z,11.67
